Time;durP1;ratioP1;P1;durP2;ratioP2;P2;SDS_P1;SDS_P2;PMS_P1;PMS_P2;Temp;Humidity;BMP_temperature;BMP_pressure;BME280_temperature;BME280_humidity;BME280_pressure;Samples;Min_cycle;Max_cycle;Signal;HPM_P1;HPM_P2
2023/08/23 00:01:42;;;;;;;6.38;2.90;;;;;;;15.97;100.00;101955.31;5049193;28;20203;-77
2023/08/23 00:04:10;;;;;;;4.32;2.75;;;;;;;15.92;100.00;101952.19;5049444;28;20025;-75
2023/08/23 00:06:35;;;;;;;7.55;2.90;;;;;;;15.91;100.00;101950.50;5049884;28;20489;-75
2023/08/23 00:09:01;;;;;;;3.33;2.70;;;;;;;15.88;100.00;101940.97;5049430;28;20309;-76
2023/08/23 00:11:26;;;;;;;4.90;2.80;;;;;;;15.85;100.00;101945.69;5048561;28;20035;-76
2023/08/23 00:13:52;;;;;;;5.30;3.08;;;;;;;15.80;100.00;101942.53;5049927;28;20462;-76
2023/08/23 00:16:17;;;;;;;8.20;3.15;;;;;;;15.77;100.00;101942.78;5067733;28;20025;-76
2023/08/23 00:18:42;;;;;;;4.40;3.00;;;;;;;15.77;100.00;101937.47;5051015;28;20378;-76
2023/08/23 00:21:08;;;;;;;3.92;2.90;;;;;;;15.76;100.00;101944.59;5049346;28;20024;-76
2023/08/23 00:23:33;;;;;;;6.28;3.05;;;;;;;15.76;100.00;101943.75;5049109;28;20542;-75
2023/08/23 00:25:59;;;;;;;4.43;3.10;;;;;;;15.70;100.00;101942.44;5049945;28;20550;-76
2023/08/23 00:28:24;;;;;;;3.75;3.10;;;;;;;15.70;100.00;101946.88;5043219;28;20017;-75
2023/08/23 00:30:54;;;;;;;4.05;2.90;;;;;;;15.64;100.00;101943.75;5029617;28;20030;-76
2023/08/23 00:33:19;;;;;;;3.53;2.88;;;;;;;15.62;100.00;101940.38;5030175;28;20029;-75
2023/08/23 00:35:45;;;;;;;4.25;3.13;;;;;;;15.59;100.00;101940.59;5030103;28;20065;-75
2023/08/23 00:38:12;;;;;;;4.30;3.05;;;;;;;15.56;100.00;101926.69;5028955;28;20033;-75
2023/08/23 00:40:37;;;;;;;5.18;3.53;;;;;;;15.58;100.00;101927.44;5030298;28;20026;-75
2023/08/23 00:43:06;;;;;;;4.22;2.70;;;;;;;15.51;100.00;101919.09;5030535;28;20040;-75
2023/08/23 00:45:33;;;;;;;5.80;2.75;;;;;;;15.49;100.00;101926.31;5029635;28;20043;-75
2023/08/23 00:47:59;;;;;;;2.95;2.47;;;;;;;15.48;100.00;101919.31;5029939;28;20053;-75
2023/08/23 00:50:25;;;;;;;3.70;2.58;;;;;;;15.47;100.00;101912.34;5030272;28;20059;-75
2023/08/23 00:52:51;;;;;;;4.35;2.90;;;;;;;15.44;100.00;101914.38;5029419;28;20072;-77
2023/08/23 00:55:16;;;;;;;3.55;2.53;;;;;;;15.45;100.00;101910.75;5044833;28;20032;-75
2023/08/23 00:57:42;;;;;;;4.53;2.45;;;;;;;15.40;100.00;101916.44;5048450;28;20052;-75
2023/08/23 01:00:08;;;;;;;4.22;2.40;;;;;;;15.39;100.00;101912.09;5048443;28;20028;-75
2023/08/23 01:02:35;;;;;;;4.40;2.58;;;;;;;15.42;100.00;101911.84;5048952;28;20024;-75
2023/08/23 01:05:00;;;;;;;2.72;2.25;;;;;;;15.39;100.00;101917.38;5048543;28;20063;-75
2023/08/23 01:08:03;;;;;;;4.80;2.97;;;;;;;15.41;100.00;101915.47;5048120;28;20032;-75
2023/08/23 01:10:40;;;;;;;6.63;3.03;;;;;;;15.36;100.00;101913.16;5048362;28;20048;-75
2023/08/23 01:13:24;;;;;;;4.13;3.22;;;;;;;15.33;100.00;101917.88;5048067;28;20029;-75
2023/08/23 01:15:54;;;;;;;3.60;2.90;;;;;;;15.25;100.00;101922.91;5048160;28;20021;-75
2023/08/23 01:18:20;;;;;;;6.05;3.17;;;;;;;15.26;100.00;101927.25;5048147;28;20025;-75
2023/08/23 01:20:48;;;;;;;4.82;3.05;;;;;;;15.22;100.00;101917.84;5047463;28;20025;-75
2023/08/23 01:23:15;;;;;;;3.45;2.70;;;;;;;15.20;100.00;101927.69;5046898;28;20045;-75
2023/08/23 01:25:47;;;;;;;5.70;2.95;;;;;;;15.14;100.00;101922.88;5048266;28;20028;-77
2023/08/23 01:28:12;;;;;;;4.95;3.03;;;;;;;15.13;100.00;101927.31;5048945;28;20024;-77
2023/08/23 01:30:39;;;;;;;4.45;3.00;;;;;;;15.13;100.00;101921.19;5051823;28;20482;-77
2023/08/23 01:33:21;;;;;;;5.55;3.00;;;;;;;15.14;100.00;101933.47;5051709;28;20032;-77
2023/08/23 01:35:51;;;;;;;4.95;3.25;;;;;;;15.11;100.00;101923.09;5050841;28;20040;-76
2023/08/23 01:38:19;;;;;;;4.30;3.45;;;;;;;15.08;100.00;101923.34;5052523;28;20358;-77
2023/08/23 01:40:45;;;;;;;7.68;3.40;;;;;;;15.04;100.00;101928.03;5051875;28;20119;-77
2023/08/23 01:43:10;;;;;;;3.65;3.22;;;;;;;15.01;100.00;101913.22;5052521;28;20107;-74
2023/08/23 01:45:36;;;;;;;4.03;3.22;;;;;;;15.01;100.00;101913.22;5052638;28;20075;-75
2023/08/23 01:48:01;;;;;;;5.93;3.53;;;;;;;15.04;100.00;101902.38;5051628;28;20049;-75
2023/08/23 01:50:27;;;;;;;3.97;3.58;;;;;;;15.01;100.00;101907.06;5052441;28;20299;-75
2023/08/23 01:52:52;;;;;;;4.15;3.05;;;;;;;14.98;100.00;101908.13;5050896;28;20021;-75
2023/08/23 01:55:17;;;;;;;4.43;3.40;;;;;;;14.93;100.00;101909.44;5035040;28;20129;-75
2023/08/23 01:57:44;;;;;;;4.22;3.30;;;;;;;14.93;100.00;101910.28;5032007;28;20060;-75
2023/08/23 02:00:10;;;;;;;4.78;3.53;;;;;;;14.93;100.00;101912.94;5032226;28;20045;-75
2023/08/23 02:02:36;;;;;;;4.38;3.83;;;;;;;14.87;100.00;101916.06;5032056;28;20032;-75
2023/08/23 02:05:01;;;;;;;5.97;3.50;;;;;;;14.82;100.00;101915.56;5032136;28;20389;-76
2023/08/23 02:07:27;;;;;;;5.57;3.70;;;;;;;14.82;100.00;101904.13;5030919;28;20044;-76
2023/08/23 02:09:52;;;;;;;7.32;4.05;;;;;;;14.79;100.00;101907.81;5030617;28;20036;-75
2023/08/23 02:12:17;;;;;;;4.35;3.83;;;;;;;14.76;100.00;101902.75;5030923;28;20104;-75
2023/08/23 02:14:43;;;;;;;4.70;3.80;;;;;;;14.69;100.00;101907.66;5030782;28;20104;-75
2023/08/23 02:17:08;;;;;;;3.70;3.40;;;;;;;14.70;100.00;101913.81;5030641;28;20034;-76
2023/08/23 02:19:33;;;;;;;5.85;3.30;;;;;;;14.65;100.00;101915.94;5029937;28;20025;-76
2023/08/23 02:21:59;;;;;;;4.60;3.60;;;;;;;14.64;100.00;101912.47;5030739;28;20029;-76
2023/08/23 02:24:24;;;;;;;4.28;3.60;;;;;;;14.56;100.00;101911.34;5030557;28;20575;-76
2023/08/23 02:26:50;;;;;;;6.60;3.40;;;;;;;14.59;100.00;101908.47;5030636;28;20021;-76
2023/08/23 02:29:15;;;;;;;4.43;3.63;;;;;;;14.57;100.00;101905.09;5043416;28;20024;-76
2023/08/23 02:31:40;;;;;;;6.45;3.40;;;;;;;14.55;100.00;101899.91;5049148;28;20033;-76
2023/08/23 02:34:06;;;;;;;4.90;3.75;;;;;;;14.54;100.00;101900.88;5049306;28;20490;-76
2023/08/23 02:36:31;;;;;;;4.22;3.40;;;;;;;14.50;100.00;101907.34;5050475;28;20087;-76
2023/08/23 02:38:57;;;;;;;3.90;3.45;;;;;;;14.48;100.00;101908.41;5049431;28;20159;-76
2023/08/23 02:41:22;;;;;;;5.13;3.67;;;;;;;14.46;100.00;101903.25;5049778;28;20029;-76
2023/08/23 02:43:47;;;;;;;6.78;3.70;;;;;;;14.45;100.00;101908.66;5050087;28;20025;-76
2023/08/23 02:46:13;;;;;;;4.45;3.58;;;;;;;14.43;100.00;101905.25;5048129;28;20073;-76
2023/08/23 02:48:38;;;;;;;4.25;3.58;;;;;;;14.40;100.00;101912.41;5050464;28;20039;-76
2023/08/23 02:51:04;;;;;;;4.20;3.50;;;;;;;14.37;100.00;101899.41;5050609;28;20103;-76
2023/08/23 02:53:29;;;;;;;3.90;3.47;;;;;;;14.35;100.00;101908.41;5049464;28;20123;-76
2023/08/23 02:55:54;;;;;;;4.97;3.53;;;;;;;14.31;100.00;101902.50;5031166;28;20760;-76
2023/08/23 02:58:20;;;;;;;4.88;3.40;;;;;;;14.31;100.00;101904.31;5030691;28;20059;-76
2023/08/23 03:00:45;;;;;;;4.10;3.53;;;;;;;14.25;100.00;101892.34;5029600;28;20543;-76
2023/08/23 03:03:11;;;;;;;5.25;3.60;;;;;;;14.26;100.00;101896.69;5031069;28;20029;-76
2023/08/23 03:05:36;;;;;;;5.82;3.50;;;;;;;14.19;100.00;101884.88;5030921;28;20389;-76
2023/08/23 03:08:02;;;;;;;4.82;3.50;;;;;;;14.19;100.00;101892.81;5029613;28;20589;-76
2023/08/23 03:10:27;;;;;;;4.18;3.53;;;;;;;14.19;100.00;101892.81;5029842;28;20040;-76
2023/08/23 03:12:52;;;;;;;4.63;3.22;;;;;;;14.16;100.00;101893.03;5030060;28;20032;-76
2023/08/23 03:15:18;;;;;;;4.00;3.30;;;;;;;14.13;100.00;101895.91;5029745;28;20486;-76
2023/08/23 03:17:43;;;;;;;7.35;3.60;;;;;;;14.06;100.00;101892.00;5029569;28;20478;-76
2023/08/23 03:20:09;;;;;;;5.38;3.60;;;;;;;14.06;100.00;101884.06;5029354;28;20446;-76
2023/08/23 03:22:35;;;;;;;5.13;3.28;;;;;;;14.04;100.00;101878.91;5028843;28;20025;-76
2023/08/23 03:25:00;;;;;;;4.00;3.28;;;;;;;14.00;100.00;101887.13;5028210;28;20799;-76
2023/08/23 03:27:26;;;;;;;4.95;3.42;;;;;;;13.99;100.00;101880.16;5028989;28;20033;-76
2023/08/23 03:29:51;;;;;;;4.78;3.15;;;;;;;13.97;100.00;101884.72;5046797;28;20052;-77
2023/08/23 03:32:17;;;;;;;3.80;3.28;;;;;;;13.96;100.00;101883.03;5049313;28;20041;-76
2023/08/23 03:34:42;;;;;;;4.60;3.30;;;;;;;13.93;100.00;101885.88;5046947;28;20413;-76
2023/08/23 03:37:08;;;;;;;6.32;3.70;;;;;;;13.90;100.00;101886.09;5048798;28;20025;-77
2023/08/23 03:39:34;;;;;;;3.95;3.10;;;;;;;13.87;100.00;101891.63;5049702;28;20031;-76
2023/08/23 03:41:59;;;;;;;5.10;3.58;;;;;;;13.85;100.00;101888.25;5048563;28;20115;-76
2023/08/23 03:44:24;;;;;;;3.72;3.33;;;;;;;13.84;100.00;101886.56;5049064;28;20131;-76
2023/08/23 03:46:50;;;;;;;4.90;3.50;;;;;;;13.85;100.00;101882.94;5048781;28;20145;-77
2023/08/23 03:49:15;;;;;;;6.22;3.30;;;;;;;13.83;100.00;101884.88;5049089;28;20480;-76
2023/08/23 03:51:40;;;;;;;3.90;3.50;;;;;;;13.85;100.00;101883.78;5050137;28;20047;-76
2023/08/23 03:54:06;;;;;;;4.38;3.40;;;;;;;13.85;100.00;101882.94;5045057;28;20025;-77
2023/08/23 03:56:31;;;;;;;5.32;3.40;;;;;;;13.80;100.00;101886.78;5029839;28;20492;-75
2023/08/23 03:58:58;;;;;;;4.57;3.03;;;;;;;13.83;100.00;101890.16;5029954;28;20116;-75
2023/08/23 04:01:23;;;;;;;3.88;3.30;;;;;;;13.82;100.00;101883.16;5029489;28;20025;-75
2023/08/23 04:03:49;;;;;;;3.90;3.30;;;;;;;13.84;100.00;101883.91;5028520;28;20056;-75
2023/08/23 04:06:14;;;;;;;5.15;3.83;;;;;;;13.89;100.00;101884.41;5030186;28;20044;-75
2023/08/23 04:08:39;;;;;;;6.60;3.85;;;;;;;13.85;100.00;101888.25;5028452;28;20501;-75
2023/08/23 04:11:05;;;;;;;4.95;3.75;;;;;;;13.84;100.00;101883.91;5030238;28;20504;-75
2023/08/23 04:13:30;;;;;;;5.45;3.70;;;;;;;13.83;100.00;101891.00;5029920;28;20025;-75
2023/08/23 04:15:55;;;;;;;5.50;3.58;;;;;;;13.85;100.00;101898.81;5029241;28;20104;-75
2023/08/23 04:18:21;;;;;;;7.22;3.90;;;;;;;13.84;100.00;101892.69;5029980;28;20052;-75
2023/08/23 04:20:46;;;;;;;8.68;4.40;;;;;;;13.83;100.00;101890.16;5029702;28;20140;-75
2023/08/23 04:23:12;;;;;;;7.07;4.35;;;;;;;13.79;100.00;101892.16;5029105;28;20040;-75
2023/08/23 04:25:37;;;;;;;4.60;3.97;;;;;;;13.79;100.00;101890.38;5030194;28;20030;-75
2023/08/23 04:28:03;;;;;;;5.65;4.43;;;;;;;13.76;100.00;101895.88;5031199;28;20033;-75
2023/08/23 04:30:28;;;;;;;4.65;4.25;;;;;;;13.71;100.00;101891.88;5048627;28;20504;-75
2023/08/23 04:32:53;;;;;;;5.78;4.43;;;;;;;13.69;100.00;101891.97;5047353;28;20549;-75
2023/08/23 04:35:19;;;;;;;5.53;4.07;;;;;;;13.73;100.00;101896.09;5048550;28;20096;-75
2023/08/23 04:37:44;;;;;;;4.93;4.15;;;;;;;13.67;100.00;101904.47;5048127;28;20381;-75
2023/08/23 04:40:10;;;;;;;5.47;4.47;;;;;;;13.69;100.00;101902.56;5047222;28;20067;-75
2023/08/23 04:42:37;;;;;;;6.72;4.78;;;;;;;13.61;100.00;101896.97;5048892;28;20052;-75
2023/08/23 04:45:03;;;;;;;9.25;4.93;;;;;;;13.57;100.00;101900.75;5046566;28;20025;-75
2023/08/23 04:47:30;;;;;;;8.55;4.75;;;;;;;13.58;100.00;101904.25;5048194;28;20451;-75
2023/08/23 04:49:55;;;;;;;7.78;4.90;;;;;;;13.61;100.00;101906.66;5047257;28;20025;-75
2023/08/23 04:52:21;;;;;;;10.80;5.20;;;;;;;13.61;100.00;101896.97;5047993;28;20075;-74
2023/08/23 04:54:46;;;;;;;10.27;5.00;;;;;;;13.65;100.00;101893.16;5036148;28;20026;-75
2023/08/23 04:57:12;;;;;;;9.98;4.93;;;;;;;13.69;100.00;101899.91;5028679;28;20470;-75
2023/08/23 04:59:39;;;;;;;9.77;4.65;;;;;;;13.75;100.00;101886.25;5028389;28;20053;-75
2023/08/23 05:02:04;;;;;;;8.48;5.05;;;;;;;13.78;100.00;101899.25;5028818;28;20359;-75
2023/08/23 05:04:29;;;;;;;6.65;4.55;;;;;;;13.84;100.00;101892.69;5030464;28;20477;-75
2023/08/23 05:06:55;;;;;;;10.13;4.88;;;;;;;13.91;100.00;101893.09;5030533;28;20029;-75
2023/08/23 05:09:20;;;;;;;12.93;4.93;;;;;;;13.97;100.00;101890.00;5032302;28;20047;-76
2023/08/23 05:11:46;;;;;;;12.00;5.18;;;;;;;14.03;100.00;101895.72;5032279;28;20492;-76
2023/08/23 05:14:11;;;;;;;15.00;5.47;;;;;;;14.09;100.00;101887.34;5033138;28;20553;-76
2023/08/23 05:16:36;;;;;;;10.20;4.70;;;;;;;14.16;100.00;101893.03;5033650;28;20041;-76
2023/08/23 05:19:02;;;;;;;15.10;5.38;;;;;;;14.25;100.00;101875.63;5032517;28;20044;-76
2023/08/23 05:21:27;;;;;;;10.00;5.15;;;;;;;14.29;100.00;101882.38;5031882;28;20460;-76
2023/08/23 05:23:52;;;;;;;7.75;4.78;;;;;;;14.34;100.00;101877.59;5032756;28;20436;-76
2023/08/23 05:26:18;;;;;;;11.80;5.25;;;;;;;14.36;100.00;101889.78;5031321;28;20017;-76
2023/08/23 05:28:44;;;;;;;8.15;5.28;;;;;;;14.36;100.00;101881.81;5040952;28;20017;-76
2023/08/23 05:31:09;;;;;;;10.18;5.03;;;;;;;14.37;100.00;101887.97;5052974;28;20051;-76
2023/08/23 05:33:35;;;;;;;11.02;4.68;;;;;;;14.40;100.00;101887.75;5052650;28;20469;-76
2023/08/23 05:36:01;;;;;;;12.75;5.07;;;;;;;14.41;100.00;101886.81;5052867;28;20021;-76
2023/08/23 05:38:28;;;;;;;9.45;4.90;;;;;;;14.41;100.00;101890.31;5052751;28;20067;-76
2023/08/23 05:40:53;;;;;;;14.02;5.35;;;;;;;14.43;100.00;101884.09;5052035;28;20017;-76
2023/08/23 05:43:19;;;;;;;15.68;5.35;;;;;;;14.42;100.00;101885.84;5051606;28;20154;-76
2023/08/23 05:45:44;;;;;;;11.10;5.35;;;;;;;14.44;100.00;101901.66;5050113;28;20524;-76
2023/08/23 05:48:09;;;;;;;9.90;5.00;;;;;;;14.44;100.00;101901.66;5049673;28;20049;-76
2023/08/23 05:50:35;;;;;;;11.15;5.10;;;;;;;14.47;100.00;101896.13;5050948;28;20084;-76
2023/08/23 05:53:01;;;;;;;8.40;5.28;;;;;;;14.49;100.00;101905.66;5050487;28;21050;-76
2023/08/23 05:55:26;;;;;;;6.78;4.97;;;;;;;14.55;100.00;101899.06;5034271;28;20083;-76
2023/08/23 05:57:52;;;;;;;8.70;5.03;;;;;;;14.62;100.00;101890.53;5030212;28;20029;-76
2023/08/23 06:00:17;;;;;;;10.65;4.85;;;;;;;14.68;100.00;101899.84;5030358;28;20031;-76
2023/08/23 06:02:43;;;;;;;8.70;5.28;;;;;;;14.70;100.00;101903.22;5031008;28;20025;-76
2023/08/23 06:05:11;;;;;;;9.20;5.45;;;;;;;14.74;100.00;101894.91;5031395;28;20029;-76
2023/08/23 06:07:37;;;;;;;11.20;5.95;;;;;;;14.81;100.00;101908.56;5031825;28;20031;-76
2023/08/23 06:10:03;;;;;;;13.23;7.18;;;;;;;14.83;100.00;101905.81;5030760;28;20424;-76
2023/08/23 06:12:29;;;;;;;9.27;7.50;;;;;;;14.89;100.00;101902.69;5031303;28;20029;-76
2023/08/23 06:14:57;;;;;;;9.85;7.88;;;;;;;14.95;100.00;101908.38;5029302;28;20124;-76
2023/08/23 06:17:25;;;;;;;8.68;7.78;;;;;;;15.03;100.00;101903.34;5030319;28;20021;-76
2023/08/23 06:19:51;;;;;;;11.40;7.97;;;;;;;15.11;100.00;101912.50;5031917;28;20017;-76
2023/08/23 06:22:17;;;;;;;9.77;7.78;;;;;;;15.11;100.00;101905.41;5030126;28;20634;-76
2023/08/23 06:24:42;;;;;;;14.23;8.20;;;;;;;15.17;100.00;101906.72;5031742;28;20443;-76
2023/08/23 06:27:08;;;;;;;9.65;8.45;;;;;;;15.23;100.00;101916.88;5030925;28;20117;-76
2023/08/23 06:29:33;;;;;;;13.88;9.10;;;;;;;15.28;100.00;101914.72;5046728;28;20079;-76
2023/08/23 06:31:59;;;;;;;13.82;9.25;;;;;;;15.34;100.00;101903.66;5051631;28;20021;-76
2023/08/23 06:34:25;;;;;;;13.02;8.93;;;;;;;15.43;100.00;101912.69;5051673;28;20100;-76
2023/08/23 06:36:50;;;;;;;10.98;9.13;;;;;;;15.52;100.00;101904.00;5050961;28;20025;-76
2023/08/23 06:39:17;;;;;;;11.38;9.00;;;;;;;15.60;100.00;101907.78;5051726;28;20025;-76
2023/08/23 06:41:43;;;;;;;13.38;9.02;;;;;;;15.70;100.00;101915.06;5051493;28;20036;-76
2023/08/23 06:44:08;;;;;;;14.10;9.60;;;;;;;15.78;100.00;101909.97;5049955;28;20033;-76
2023/08/23 06:46:34;;;;;;;9.85;8.85;;;;;;;15.85;100.00;101909.38;5051591;28;20378;-76
2023/08/23 06:48:59;;;;;;;11.95;9.38;;;;;;;15.94;100.00;101902.47;5051434;28;20037;-76
2023/08/23 06:51:27;;;;;;;10.82;9.18;;;;;;;16.03;100.00;101900.91;5050576;28;20107;-76
2023/08/23 06:53:53;;;;;;;10.90;9.18;;;;;;;16.11;100.00;101912.59;5047116;28;20026;-76
2023/08/23 06:56:18;;;;;;;14.48;10.48;;;;;;;16.31;100.00;101910.97;5030439;28;20104;-76
2023/08/23 06:58:44;;;;;;;11.80;9.57;;;;;;;16.39;100.00;101918.31;5028633;28;20039;-76
2023/08/23 07:01:14;;;;;;;10.60;9.35;;;;;;;16.50;100.00;101926.28;5030551;28;20032;-77
2023/08/23 07:03:41;;;;;;;12.15;9.75;;;;;;;16.64;100.00;101928.66;5030710;28;20032;-77
2023/08/23 07:06:06;;;;;;;12.48;10.27;;;;;;;16.88;100.00;101931.13;5028618;28;20486;-77
2023/08/23 07:08:32;;;;;;;12.10;9.60;;;;;;;17.02;100.00;101930.81;5030356;28;20013;-77
2023/08/23 07:10:57;;;;;;;14.10;9.60;;;;;;;17.27;100.00;101931.41;5030163;28;20448;-77
2023/08/23 07:13:23;;;;;;;13.30;9.48;;;;;;;17.50;100.00;101939.09;5029643;28;20495;-77
2023/08/23 07:15:49;;;;;;;13.90;8.70;;;;;;;17.72;100.00;101931.97;5029927;28;20023;-75
2023/08/23 07:18:14;;;;;;;10.65;8.63;;;;;;;18.02;100.00;101934.63;5028355;28;20030;-75
2023/08/23 07:20:40;;;;;;;11.30;8.13;;;;;;;18.21;100.00;101931.16;5028966;28;20036;-76
2023/08/23 07:23:05;;;;;;;10.13;7.53;;;;;;;18.48;100.00;101936.69;5029994;28;20122;-76
2023/08/23 07:25:30;;;;;;;11.88;7.30;;;;;;;18.75;100.00;101938.69;5027360;28;20021;-76
2023/08/23 07:27:56;;;;;;;8.18;6.70;;;;;;;18.98;99.35;101944.59;5030158;28;20025;-76
2023/08/23 07:30:21;;;;;;;7.85;6.22;;;;;;;19.26;96.34;101947.41;5050836;28;20520;-76
2023/08/23 07:32:47;;;;;;;11.65;6.65;;;;;;;19.47;94.79;101944.53;5049965;28;20036;-76
2023/08/23 07:35:12;;;;;;;7.80;6.00;;;;;;;19.55;95.50;101952.69;5050628;28;20044;-76
2023/08/23 07:37:38;;;;;;;9.00;5.90;;;;;;;19.89;90.10;101940.47;5050982;28;20020;-76
2023/08/23 07:40:04;;;;;;;9.35;5.50;;;;;;;20.11;89.02;101949.09;5050086;28;20059;-76
2023/08/23 07:42:30;;;;;;;10.75;5.82;;;;;;;20.30;87.19;101940.97;5050598;28;20485;-76
2023/08/23 07:44:55;;;;;;;7.97;6.25;;;;;;;20.41;85.69;101946.13;5049119;28;20029;-77
2023/08/23 07:47:21;;;;;;;10.00;5.75;;;;;;;20.70;85.44;101950.44;5048121;28;20044;-77
2023/08/23 07:49:46;;;;;;;9.43;5.43;;;;;;;20.98;84.83;101960.06;5050182;28;20063;-77
2023/08/23 07:52:12;;;;;;;7.88;6.50;;;;;;;21.22;82.64;101957.59;5050552;28;20107;-77
2023/08/23 07:54:38;;;;;;;8.25;6.50;;;;;;;21.38;80.01;101956.06;5040280;28;20017;-77
2023/08/23 07:57:03;;;;;;;7.68;5.80;;;;;;;21.54;79.76;101953.47;5029825;28;20460;-76
2023/08/23 07:59:29;;;;;;;8.93;6.10;;;;;;;21.65;79.71;101953.25;5029427;28;20371;-74
2023/08/23 08:01:54;;;;;;;9.48;5.93;;;;;;;21.81;79.71;101945.28;5028650;28;20033;-75
2023/08/23 08:04:19;;;;;;;5.80;5.15;;;;;;;22.15;78.24;101941.78;5029275;28;20413;-75
2023/08/23 08:06:45;;;;;;;10.52;5.30;;;;;;;22.29;75.25;101941.13;5029099;28;20108;-76
2023/08/23 08:09:10;;;;;;;8.20;5.10;;;;;;;22.49;75.75;101939.88;5027267;28;20030;-76
2023/08/23 08:11:35;;;;;;;7.43;4.65;;;;;;;22.78;74.24;101939.38;5029624;28;20029;-75
2023/08/23 08:14:01;;;;;;;5.22;4.38;;;;;;;22.95;68.81;101942.97;5029013;28;20113;-76
2023/08/23 08:16:26;;;;;;;8.30;4.32;;;;;;;23.16;70.79;101939.75;5028575;28;20045;-76
2023/08/23 08:18:52;;;;;;;5.70;4.25;;;;;;;23.23;72.07;101942.63;5028996;28;20726;-76
2023/08/23 08:21:19;;;;;;;6.10;4.30;;;;;;;23.57;66.53;101951.28;5027796;28;20029;-76
2023/08/23 08:23:46;;;;;;;6.57;4.47;;;;;;;23.68;68.25;101950.13;5028541;28;20080;-76
2023/08/23 08:26:13;;;;;;;6.75;4.53;;;;;;;23.90;65.44;101951.19;5028917;28;20037;-76
2023/08/23 08:28:42;;;;;;;8.43;3.63;;;;;;;23.94;65.84;101947.16;5034893;28;20025;-76
2023/08/23 08:31:09;;;;;;;6.45;3.90;;;;;;;23.99;65.24;101947.47;5048976;28;20036;-75
2023/08/23 08:33:34;;;;;;;7.50;4.50;;;;;;;24.08;63.46;101938.38;5049312;28;20551;-75
2023/08/23 08:36:00;;;;;;;7.20;3.60;;;;;;;24.15;63.46;101935.81;5046690;28;20021;-75
2023/08/23 08:38:25;;;;;;;6.97;3.88;;;;;;;24.41;63.57;101932.81;5050871;28;20052;-76
2023/08/23 08:40:51;;;;;;;5.85;3.80;;;;;;;24.74;62.88;101928.91;5053145;28;20029;-76
2023/08/23 08:43:18;;;;;;;8.70;3.80;;;;;;;24.88;59.88;101930.81;5053227;28;20021;-76
2023/08/23 08:45:44;;;;;;;7.85;2.80;;;;;;;24.96;61.09;101925.38;5052416;28;20086;-76
2023/08/23 08:48:09;;;;;;;4.28;2.78;;;;;;;24.96;59.69;101924.53;5052049;28;20057;-77
2023/08/23 08:50:36;;;;;;;6.13;2.95;;;;;;;25.16;57.58;101930.25;5053758;28;20378;-77
2023/08/23 08:53:07;;;;;;;7.03;3.42;;;;;;;25.47;57.47;101933.66;5053417;28;20538;-76
2023/08/23 08:55:34;;;;;;;7.60;3.75;;;;;;;25.49;56.13;101937.00;5035200;28;20021;-76
2023/08/23 08:58:01;;;;;;;6.22;3.50;;;;;;;25.48;55.67;101932.63;5032752;28;20036;-76
2023/08/23 09:00:28;;;;;;;12.27;3.30;;;;;;;25.55;54.92;101936.25;5033626;28;20108;-76
2023/08/23 09:02:57;;;;;;;6.82;2.90;;;;;;;25.65;57.75;101935.16;5033308;28;20067;-76
2023/08/23 09:05:24;;;;;;;6.75;3.10;;;;;;;25.91;55.21;101939.06;5033003;28;20057;-76
2023/08/23 09:07:50;;;;;;;7.07;3.08;;;;;;;26.01;54.55;101930.69;5033476;28;20362;-77
2023/08/23 09:10:16;;;;;;;7.05;2.75;;;;;;;26.27;55.50;101932.03;5033531;28;20405;-76
2023/08/23 09:12:42;;;;;;;4.88;2.95;;;;;;;26.14;52.84;101928.16;5033007;28;20036;-76
2023/08/23 09:15:10;;;;;;;10.88;3.35;;;;;;;26.05;52.63;101933.88;5033158;28;20067;-76
2023/08/23 09:17:36;;;;;;;7.20;3.28;;;;;;;26.10;53.53;101928.72;5033060;28;20389;-77
2023/08/23 09:20:06;;;;;;;14.75;4.30;;;;;;;26.21;53.46;101928.22;5031835;28;20036;-76
2023/08/23 09:22:33;;;;;;;14.52;4.10;;;;;;;26.26;54.17;101933.88;5032233;28;20029;-76
2023/08/23 09:24:59;;;;;;;7.10;4.07;;;;;;;26.44;53.34;101920.03;5031557;28;20059;-76
2023/08/23 09:27:26;;;;;;;7.68;3.80;;;;;;;26.70;53.43;101931.06;5032231;28;20481;-75
2023/08/23 09:29:54;;;;;;;8.05;3.90;;;;;;;26.77;54.47;101936.53;5049518;28;20377;-75
2023/08/23 09:32:19;;;;;;;9.32;4.53;;;;;;;26.74;52.46;101937.75;5051356;28;20609;-74
2023/08/23 09:34:45;;;;;;;7.95;4.55;;;;;;;26.58;51.70;101937.19;5051954;28;20073;-75
2023/08/23 09:37:10;;;;;;;8.73;5.25;;;;;;;26.31;52.00;101941.41;5051745;28;20047;-75
2023/08/23 09:39:36;;;;;;;7.00;4.50;;;;;;;26.31;54.34;101936.00;5050414;28;20108;-74
2023/08/23 09:42:13;;;;;;;7.78;3.90;;;;;;;26.44;54.64;101938.91;5051633;28;20029;-75
2023/08/23 09:44:43;;;;;;;8.20;4.47;;;;;;;26.52;52.93;101928.00;5051916;28;20477;-75
2023/08/23 09:47:17;;;;;;;6.38;4.43;;;;;;;26.68;54.31;101927.72;5049396;28;20136;-76
2023/08/23 09:49:44;;;;;;;7.82;4.85;;;;;;;26.78;53.59;101928.22;5051410;28;20024;-76
2023/08/23 09:52:11;;;;;;;8.88;6.15;;;;;;;26.71;52.42;101927.34;5051760;28;20421;-77
2023/08/23 09:54:42;;;;;;;6.18;4.80;;;;;;;26.87;54.22;101930.81;5042755;28;20010;-76
2023/08/23 09:57:08;;;;;;;10.88;5.97;;;;;;;26.88;51.67;101921.69;5032695;28;20022;-76
2023/08/23 09:59:34;;;;;;;8.00;5.03;;;;;;;26.99;53.52;101924.72;5033004;28;20142;-77
2023/08/23 10:02:02;;;;;;;6.80;5.43;;;;;;;27.03;51.45;101923.28;5031898;28;20108;-77
2023/08/23 10:04:28;;;;;;;8.82;5.13;;;;;;;26.99;52.17;101934.69;5032573;28;20324;-76
2023/08/23 10:06:55;;;;;;;9.20;4.55;;;;;;;27.02;54.73;101932.44;5032184;28;20025;-76
2023/08/23 10:09:21;;;;;;;9.88;5.55;;;;;;;26.55;52.65;101922.22;5032011;28;20029;-77
2023/08/23 10:11:48;;;;;;;8.02;5.07;;;;;;;26.62;52.42;101924.97;5032286;28;20111;-76
2023/08/23 10:14:14;;;;;;;9.90;4.97;;;;;;;26.61;53.79;101929.53;5031596;28;20489;-77
2023/08/23 10:16:41;;;;;;;8.52;4.90;;;;;;;26.74;52.03;101932.34;5032748;28;20116;-76
2023/08/23 10:19:10;;;;;;;10.32;5.50;;;;;;;26.49;50.69;101923.81;5031318;28;20496;-76
2023/08/23 10:21:37;;;;;;;7.53;5.15;;;;;;;26.46;52.40;101926.06;5031768;28;20040;-76
2023/08/23 10:24:04;;;;;;;8.95;4.93;;;;;;;26.45;53.20;101927.09;5031372;28;20029;-76
2023/08/23 10:26:43;;;;;;;7.18;5.07;;;;;;;26.62;52.65;101922.25;5031240;28;20026;-76
2023/08/23 10:29:09;;;;;;;6.50;4.80;;;;;;;26.82;52.81;101926.84;5042153;28;20024;-76
2023/08/23 10:31:34;;;;;;;7.20;5.10;;;;;;;27.00;50.42;101928.25;5051510;28;20020;-76
2023/08/23 10:34:00;;;;;;;7.25;4.90;;;;;;;27.00;49.23;101926.38;5050920;28;20047;-76
2023/08/23 10:36:28;;;;;;;7.85;5.35;;;;;;;27.01;50.37;101929.94;5050399;28;20475;-76
2023/08/23 10:38:55;;;;;;;7.72;5.25;;;;;;;27.20;49.99;101920.28;5051034;28;20409;-77
2023/08/23 10:41:23;;;;;;;6.78;4.50;;;;;;;27.39;50.54;101927.72;5050822;28;20115;-76
2023/08/23 10:43:49;;;;;;;7.50;4.70;;;;;;;27.57;48.51;101911.81;5050324;28;20451;-76
2023/08/23 10:46:19;;;;;;;8.88;5.55;;;;;;;27.36;49.52;101910.03;5050481;28;20256;-76
2023/08/23 10:48:46;;;;;;;6.63;4.40;;;;;;;27.16;47.18;101909.88;5050738;28;20130;-76
2023/08/23 10:51:12;;;;;;;5.68;3.55;;;;;;;27.38;47.62;101910.66;5050111;28;20358;-77
2023/08/23 10:53:40;;;;;;;5.32;3.78;;;;;;;27.40;47.40;101910.47;5048099;28;20016;-76
2023/08/23 10:56:05;;;;;;;6.90;3.70;;;;;;;27.19;46.46;101913.22;5030809;28;20029;-76
2023/08/23 10:58:33;;;;;;;6.25;3.50;;;;;;;27.27;49.48;101908.53;5028754;28;20021;-75
2023/08/23 11:00:58;;;;;;;7.50;3.35;;;;;;;27.51;46.83;101896.38;5030036;28;20021;-76
2023/08/23 11:03:24;;;;;;;5.53;3.45;;;;;;;27.60;47.56;101894.34;5029679;28;20033;-76
2023/08/23 11:05:50;;;;;;;6.18;3.90;;;;;;;27.51;45.94;101890.13;5031261;28;20486;-74
2023/08/23 11:08:15;;;;;;;5.93;4.00;;;;;;;27.60;47.02;101891.63;5030016;28;20056;-75
2023/08/23 11:10:42;;;;;;;6.25;3.80;;;;;;;27.46;45.75;101878.06;5031199;28;20032;-74
2023/08/23 11:13:08;;;;;;;4.88;2.97;;;;;;;27.63;45.42;101877.78;5031265;28;20075;-75
2023/08/23 11:15:34;;;;;;;7.20;3.13;;;;;;;27.86;45.66;101872.88;5030320;28;20111;-75